sensor_id;sensor_type;location;lat;lon;timestamp;temperature;humidity
21662;DHT22;10992;48.170;8.596;2023-06-01T00:02:24;12.00;99.90
21662;DHT22;10992;48.170;8.596;2023-06-01T00:04:51;11.80;99.90
21662;DHT22;10992;48.170;8.596;2023-06-01T00:07:19;11.70;99.90
21662;DHT22;10992;48.170;8.596;2023-06-01T00:09:47;11.70;99.90
21662;DHT22;10992;48.170;8.596;2023-06-01T00:12:14;11.70;99.90
21662;DHT22;10992;48.170;8.596;2023-06-01T00:14:41;11.70;99.90
21662;DHT22;10992;48.170;8.596;2023-06-01T00:17:08;11.80;99.90
21662;DHT22;10992;48.170;8.596;2023-06-01T00:19:36;11.80;99.90
21662;DHT22;10992;48.170;8.596;2023-06-01T00:22:05;11.80;99.90
21662;DHT22;10992;48.170;8.596;2023-06-01T00:24:34;11.70;99.90
21662;DHT22;10992;48.170;8.596;2023-06-01T00:27:01;11.60;99.90
21662;DHT22;10992;48.170;8.596;2023-06-01T00:29:29;11.60;99.90
21662;DHT22;10992;48.170;8.596;2023-06-01T00:31:57;11.50;99.90
21662;DHT22;10992;48.170;8.596;2023-06-01T00:34:24;11.60;99.90
21662;DHT22;10992;48.170;8.596;2023-06-01T00:36:51;11.50;99.90
21662;DHT22;10992;48.170;8.596;2023-06-01T00:39:18;11.50;99.90
21662;DHT22;10992;48.170;8.596;2023-06-01T00:41:45;11.50;99.90
21662;DHT22;10992;48.170;8.596;2023-06-01T00:44:12;11.60;99.90
21662;DHT22;10992;48.170;8.596;2023-06-01T00:46:39;11.70;99.90
21662;DHT22;10992;48.170;8.596;2023-06-01T00:49:07;11.60;99.90
21662;DHT22;10992;48.170;8.596;2023-06-01T00:51:34;11.50;99.90
21662;DHT22;10992;48.170;8.596;2023-06-01T00:54:02;11.40;99.90
21662;DHT22;10992;48.170;8.596;2023-06-01T00:56:30;11.40;99.90
21662;DHT22;10992;48.170;8.596;2023-06-01T00:58:59;11.30;99.90
21662;DHT22;10992;48.170;8.596;2023-06-01T01:01:26;11.20;99.90
21662;DHT22;10992;48.170;8.596;2023-06-01T01:03:53;11.20;99.90
21662;DHT22;10992;48.170;8.596;2023-06-01T01:09:17;11.10;99.90
21662;DHT22;10992;48.170;8.596;2023-06-01T01:11:55;11.10;99.90
21662;DHT22;10992;48.170;8.596;2023-06-01T01:14:36;11.10;99.90
21662;DHT22;10992;48.170;8.596;2023-06-01T01:17:22;11.20;99.90
21662;DHT22;10992;48.170;8.596;2023-06-01T01:20:01;11.20;99.90
21662;DHT22;10992;48.170;8.596;2023-06-01T01:22:43;11.20;99.90
21662;DHT22;10992;48.170;8.596;2023-06-01T01:25:35;11.20;99.90
21662;DHT22;10992;48.170;8.596;2023-06-01T01:30:41;11.20;99.90
21662;DHT22;10992;48.170;8.596;2023-06-01T01:33:10;11.10;99.90
21662;DHT22;10992;48.170;8.596;2023-06-01T01:35:37;11.10;99.90
21662;DHT22;10992;48.170;8.596;2023-06-01T01:38:05;11.10;99.90
21662;DHT22;10992;48.170;8.596;2023-06-01T01:40:32;11.00;99.90
21662;DHT22;10992;48.170;8.596;2023-06-01T01:43:00;11.00;99.90
21662;DHT22;10992;48.170;8.596;2023-06-01T01:45:28;11.00;99.90
21662;DHT22;10992;48.170;8.596;2023-06-01T01:48:05;10.90;99.90
21662;DHT22;10992;48.170;8.596;2023-06-01T01:50:41;10.90;99.90
21662;DHT22;10992;48.170;8.596;2023-06-01T01:53:13;10.80;99.90
21662;DHT22;10992;48.170;8.596;2023-06-01T01:55:40;10.80;99.90
21662;DHT22;10992;48.170;8.596;2023-06-01T01:58:07;10.70;99.90
21662;DHT22;10992;48.170;8.596;2023-06-01T02:00:35;10.70;99.90
21662;DHT22;10992;48.170;8.596;2023-06-01T02:03:02;10.70;99.90
21662;DHT22;10992;48.170;8.596;2023-06-01T02:05:29;10.60;99.90
21662;DHT22;10992;48.170;8.596;2023-06-01T02:07:56;10.60;99.90
21662;DHT22;10992;48.170;8.596;2023-06-01T02:10:23;10.60;99.90
21662;DHT22;10992;48.170;8.596;2023-06-01T02:12:49;10.70;99.90
21662;DHT22;10992;48.170;8.596;2023-06-01T02:15:18;10.60;99.90
21662;DHT22;10992;48.170;8.596;2023-06-01T02:17:45;10.60;99.90
21662;DHT22;10992;48.170;8.596;2023-06-01T02:20:13;10.60;99.90
21662;DHT22;10992;48.170;8.596;2023-06-01T02:22:40;10.60;99.90
21662;DHT22;10992;48.170;8.596;2023-06-01T02:25:08;10.60;99.90
21662;DHT22;10992;48.170;8.596;2023-06-01T02:27:35;10.60;99.90
21662;DHT22;10992;48.170;8.596;2023-06-01T02:30:02;10.50;99.90
21662;DHT22;10992;48.170;8.596;2023-06-01T02:32:29;10.50;99.90
21662;DHT22;10992;48.170;8.596;2023-06-01T02:34:57;10.50;99.90
21662;DHT22;10992;48.170;8.596;2023-06-01T02:37:24;10.50;99.90
21662;DHT22;10992;48.170;8.596;2023-06-01T02:39:51;10.50;99.90
21662;DHT22;10992;48.170;8.596;2023-06-01T02:42:20;10.50;99.90
21662;DHT22;10992;48.170;8.596;2023-06-01T02:44:47;10.50;99.90
21662;DHT22;10992;48.170;8.596;2023-06-01T02:47:14;10.60;99.90
21662;DHT22;10992;48.170;8.596;2023-06-01T02:49:41;10.50;99.90
21662;DHT22;10992;48.170;8.596;2023-06-01T02:52:08;10.40;99.90
21662;DHT22;10992;48.170;8.596;2023-06-01T02:54:35;10.40;99.90
21662;DHT22;10992;48.170;8.596;2023-06-01T02:57:18;10.30;99.90
21662;DHT22;10992;48.170;8.596;2023-06-01T02:59:50;10.40;99.90
21662;DHT22;10992;48.170;8.596;2023-06-01T03:02:17;10.30;99.90
21662;DHT22;10992;48.170;8.596;2023-06-01T03:04:44;10.30;99.90
21662;DHT22;10992;48.170;8.596;2023-06-01T03:07:12;10.30;99.90
21662;DHT22;10992;48.170;8.596;2023-06-01T03:09:48;10.30;99.90
21662;DHT22;10992;48.170;8.596;2023-06-01T03:12:34;10.30;99.90
21662;DHT22;10992;48.170;8.596;2023-06-01T03:15:01;10.30;99.90
21662;DHT22;10992;48.170;8.596;2023-06-01T03:17:29;10.20;99.90
21662;DHT22;10992;48.170;8.596;2023-06-01T03:19:56;10.20;99.90
21662;DHT22;10992;48.170;8.596;2023-06-01T03:22:23;10.20;99.90
21662;DHT22;10992;48.170;8.596;2023-06-01T03:24:51;10.10;99.90
21662;DHT22;10992;48.170;8.596;2023-06-01T03:27:24;10.10;99.90
21662;DHT22;10992;48.170;8.596;2023-06-01T03:29:51;10.10;99.90
21662;DHT22;10992;48.170;8.596;2023-06-01T03:32:18;10.10;99.90
21662;DHT22;10992;48.170;8.596;2023-06-01T03:34:45;10.00;99.90
21662;DHT22;10992;48.170;8.596;2023-06-01T03:37:13;10.00;99.90
21662;DHT22;10992;48.170;8.596;2023-06-01T03:39:40;10.00;99.90
21662;DHT22;10992;48.170;8.596;2023-06-01T03:42:10;10.20;99.90
21662;DHT22;10992;48.170;8.596;2023-06-01T03:44:39;10.20;99.90
21662;DHT22;10992;48.170;8.596;2023-06-01T03:47:06;10.40;99.90
21662;DHT22;10992;48.170;8.596;2023-06-01T03:49:34;10.40;99.90
21662;DHT22;10992;48.170;8.596;2023-06-01T03:52:04;10.40;99.90
21662;DHT22;10992;48.170;8.596;2023-06-01T03:54:32;10.60;99.90
21662;DHT22;10992;48.170;8.596;2023-06-01T03:56:59;10.60;99.90
21662;DHT22;10992;48.170;8.596;2023-06-01T03:59:26;10.70;99.90
21662;DHT22;10992;48.170;8.596;2023-06-01T04:01:53;10.70;99.90
21662;DHT22;10992;48.170;8.596;2023-06-01T04:04:23;10.80;99.90
21662;DHT22;10992;48.170;8.596;2023-06-01T04:06:51;10.90;99.90
21662;DHT22;10992;48.170;8.596;2023-06-01T04:09:18;11.00;99.90
21662;DHT22;10992;48.170;8.596;2023-06-01T04:11:46;11.10;99.90
21662;DHT22;10992;48.170;8.596;2023-06-01T04:14:13;11.20;99.90
21662;DHT22;10992;48.170;8.596;2023-06-01T04:16:41;11.30;99.90
21662;DHT22;10992;48.170;8.596;2023-06-01T04:19:08;11.40;99.90
21662;DHT22;10992;48.170;8.596;2023-06-01T04:21:36;11.50;99.90
21662;DHT22;10992;48.170;8.596;2023-06-01T04:24:04;11.60;99.90
21662;DHT22;10992;48.170;8.596;2023-06-01T04:26:31;11.80;99.90
21662;DHT22;10992;48.170;8.596;2023-06-01T04:29:03;11.90;99.90
21662;DHT22;10992;48.170;8.596;2023-06-01T04:31:31;12.00;99.90
21662;DHT22;10992;48.170;8.596;2023-06-01T04:33:59;12.10;99.90
21662;DHT22;10992;48.170;8.596;2023-06-01T04:36:28;12.20;99.90
21662;DHT22;10992;48.170;8.596;2023-06-01T04:39:02;12.30;99.90
21662;DHT22;10992;48.170;8.596;2023-06-01T04:41:31;12.50;99.90
21662;DHT22;10992;48.170;8.596;2023-06-01T04:43:59;12.60;99.90
21662;DHT22;10992;48.170;8.596;2023-06-01T04:46:27;12.80;99.90
21662;DHT22;10992;48.170;8.596;2023-06-01T04:48:58;12.90;99.90
21662;DHT22;10992;48.170;8.596;2023-06-01T04:51:27;13.10;99.90
21662;DHT22;10992;48.170;8.596;2023-06-01T04:53:55;13.20;99.90
21662;DHT22;10992;48.170;8.596;2023-06-01T04:56:24;13.30;99.90
21662;DHT22;10992;48.170;8.596;2023-06-01T04:58:54;13.60;99.90
21662;DHT22;10992;48.170;8.596;2023-06-01T05:01:23;14.90;99.90
21662;DHT22;10992;48.170;8.596;2023-06-01T05:03:53;16.90;99.90
21662;DHT22;10992;48.170;8.596;2023-06-01T05:06:23;18.70;99.90
21662;DHT22;10992;48.170;8.596;2023-06-01T05:08:52;19.90;99.90
21662;DHT22;10992;48.170;8.596;2023-06-01T05:11:19;20.80;99.90
21662;DHT22;10992;48.170;8.596;2023-06-01T05:13:45;21.50;99.90
21662;DHT22;10992;48.170;8.596;2023-06-01T05:16:13;21.90;99.90
21662;DHT22;10992;48.170;8.596;2023-06-01T05:18:40;22.20;99.90
21662;DHT22;10992;48.170;8.596;2023-06-01T05:21:08;23.10;99.90
21662;DHT22;10992;48.170;8.596;2023-06-01T05:23:35;23.60;99.90
21662;DHT22;10992;48.170;8.596;2023-06-01T05:26:02;23.70;99.90
21662;DHT22;10992;48.170;8.596;2023-06-01T05:28:34;23.90;99.90
21662;DHT22;10992;48.170;8.596;2023-06-01T05:31:05;24.40;99.90
21662;DHT22;10992;48.170;8.596;2023-06-01T05:33:37;24.80;99.90
21662;DHT22;10992;48.170;8.596;2023-06-01T05:36:05;24.70;99.90
21662;DHT22;10992;48.170;8.596;2023-06-01T05:38:32;24.90;99.90
21662;DHT22;10992;48.170;8.596;2023-06-01T05:40:59;25.20;99.90
21662;DHT22;10992;48.170;8.596;2023-06-01T05:43:27;25.30;99.90
21662;DHT22;10992;48.170;8.596;2023-06-01T05:45:54;25.70;99.80
21662;DHT22;10992;48.170;8.596;2023-06-01T05:48:21;25.60;99.90
21662;DHT22;10992;48.170;8.596;2023-06-01T05:50:52;25.60;99.90
21662;DHT22;10992;48.170;8.596;2023-06-01T05:53:19;25.20;99.00
21662;DHT22;10992;48.170;8.596;2023-06-01T05:55:51;25.20;99.60
21662;DHT22;10992;48.170;8.596;2023-06-01T05:58:19;25.70;99.40
21662;DHT22;10992;48.170;8.596;2023-06-01T06:00:46;25.40;98.60
21662;DHT22;10992;48.170;8.596;2023-06-01T06:03:14;25.40;99.20
21662;DHT22;10992;48.170;8.596;2023-06-01T06:05:41;25.90;99.00
21662;DHT22;10992;48.170;8.596;2023-06-01T06:08:08;26.40;98.10
21662;DHT22;10992;48.170;8.596;2023-06-01T06:10:37;26.60;97.40
21662;DHT22;10992;48.170;8.596;2023-06-01T06:13:03;26.00;97.30
21662;DHT22;10992;48.170;8.596;2023-06-01T06:15:30;26.30;97.10
21662;DHT22;10992;48.170;8.596;2023-06-01T06:17:57;26.30;97.70
21662;DHT22;10992;48.170;8.596;2023-06-01T06:20:24;27.00;96.60
21662;DHT22;10992;48.170;8.596;2023-06-01T06:22:52;27.50;96.20
21662;DHT22;10992;48.170;8.596;2023-06-01T06:25:19;27.00;97.30
21662;DHT22;10992;48.170;8.596;2023-06-01T06:27:47;27.30;96.30
21662;DHT22;10992;48.170;8.596;2023-06-01T06:30:14;27.50;96.10
21662;DHT22;10992;48.170;8.596;2023-06-01T06:32:41;27.50;96.30
21662;DHT22;10992;48.170;8.596;2023-06-01T06:35:09;27.00;95.80
21662;DHT22;10992;48.170;8.596;2023-06-01T06:37:40;27.50;96.30
21662;DHT22;10992;48.170;8.596;2023-06-01T06:40:08;26.80;96.30
21662;DHT22;10992;48.170;8.596;2023-06-01T06:42:35;26.80;96.60
21662;DHT22;10992;48.170;8.596;2023-06-01T06:45:03;26.60;96.70
21662;DHT22;10992;48.170;8.596;2023-06-01T06:47:31;26.20;97.00
21662;DHT22;10992;48.170;8.596;2023-06-01T06:49:58;27.20;95.70
21662;DHT22;10992;48.170;8.596;2023-06-01T06:52:25;27.60;94.90
21662;DHT22;10992;48.170;8.596;2023-06-01T06:54:54;27.90;95.70
21662;DHT22;10992;48.170;8.596;2023-06-01T06:57:21;27.50;95.10
21662;DHT22;10992;48.170;8.596;2023-06-01T06:59:48;26.80;96.40
21662;DHT22;10992;48.170;8.596;2023-06-01T07:02:15;27.60;95.00
21662;DHT22;10992;48.170;8.596;2023-06-01T07:04:42;28.10;94.90
21662;DHT22;10992;48.170;8.596;2023-06-01T07:07:09;28.20;94.70
21662;DHT22;10992;48.170;8.596;2023-06-01T07:09:36;27.90;96.10
21662;DHT22;10992;48.170;8.596;2023-06-01T07:12:03;28.60;95.10
21662;DHT22;10992;48.170;8.596;2023-06-01T07:14:30;28.20;96.10
21662;DHT22;10992;48.170;8.596;2023-06-01T07:16:57;27.50;95.50
21662;DHT22;10992;48.170;8.596;2023-06-01T07:19:24;26.20;97.50
21662;DHT22;10992;48.170;8.596;2023-06-01T07:21:51;27.60;96.20
21662;DHT22;10992;48.170;8.596;2023-06-01T07:24:18;27.90;96.00
21662;DHT22;10992;48.170;8.596;2023-06-01T07:26:48;27.50;97.40
21662;DHT22;10992;48.170;8.596;2023-06-01T07:29:17;28.60;97.10
21662;DHT22;10992;48.170;8.596;2023-06-01T07:31:44;28.80;95.30
21662;DHT22;10992;48.170;8.596;2023-06-01T07:34:12;28.20;96.60
21662;DHT22;10992;48.170;8.596;2023-06-01T07:36:39;28.50;96.90
21662;DHT22;10992;48.170;8.596;2023-06-01T07:39:07;29.00;96.10
21662;DHT22;10992;48.170;8.596;2023-06-01T07:41:35;29.20;95.00
21662;DHT22;10992;48.170;8.596;2023-06-01T07:44:02;28.70;96.60
21662;DHT22;10992;48.170;8.596;2023-06-01T07:46:29;29.20;95.70
21662;DHT22;10992;48.170;8.596;2023-06-01T07:48:56;28.50;96.70
21662;DHT22;10992;48.170;8.596;2023-06-01T07:51:24;28.90;95.90
21662;DHT22;10992;48.170;8.596;2023-06-01T07:53:51;29.20;95.40
21662;DHT22;10992;48.170;8.596;2023-06-01T07:56:19;28.90;95.50
21662;DHT22;10992;48.170;8.596;2023-06-01T07:58:45;29.30;95.40
21662;DHT22;10992;48.170;8.596;2023-06-01T08:01:12;28.80;95.70
21662;DHT22;10992;48.170;8.596;2023-06-01T08:03:42;28.40;96.00
21662;DHT22;10992;48.170;8.596;2023-06-01T08:06:10;28.20;97.30
21662;DHT22;10992;48.170;8.596;2023-06-01T08:08:38;29.20;95.80
21662;DHT22;10992;48.170;8.596;2023-06-01T08:11:05;29.40;95.80
21662;DHT22;10992;48.170;8.596;2023-06-01T08:13:33;30.20;95.20
21662;DHT22;10992;48.170;8.596;2023-06-01T08:16:03;30.40;94.90
21662;DHT22;10992;48.170;8.596;2023-06-01T08:18:30;29.60;96.00
21662;DHT22;10992;48.170;8.596;2023-06-01T08:20:57;28.30;97.80
21662;DHT22;10992;48.170;8.596;2023-06-01T08:23:27;29.00;97.10
21662;DHT22;10992;48.170;8.596;2023-06-01T08:26:04;29.80;95.80
21662;DHT22;10992;48.170;8.596;2023-06-01T08:28:34;29.50;96.10
21662;DHT22;10992;48.170;8.596;2023-06-01T08:31:01;28.80;96.40
21662;DHT22;10992;48.170;8.596;2023-06-01T08:33:29;28.90;97.10
21662;DHT22;10992;48.170;8.596;2023-06-01T08:35:55;28.80;96.90
21662;DHT22;10992;48.170;8.596;2023-06-01T08:38:23;29.00;96.60
21662;DHT22;10992;48.170;8.596;2023-06-01T08:40:50;29.60;97.20
21662;DHT22;10992;48.170;8.596;2023-06-01T08:43:19;30.10;96.20
21662;DHT22;10992;48.170;8.596;2023-06-01T08:45:47;29.50;97.00
21662;DHT22;10992;48.170;8.596;2023-06-01T08:48:18;30.00;96.10
21662;DHT22;10992;48.170;8.596;2023-06-01T08:50:50;30.00;95.80
21662;DHT22;10992;48.170;8.596;2023-06-01T08:53:20;30.00;95.90
21662;DHT22;10992;48.170;8.596;2023-06-01T08:55:52;30.20;95.70
21662;DHT22;10992;48.170;8.596;2023-06-01T08:58:19;29.40;96.80
21662;DHT22;10992;48.170;8.596;2023-06-01T09:00:50;29.40;95.40
21662;DHT22;10992;48.170;8.596;2023-06-01T09:03:20;29.50;95.50
21662;DHT22;10992;48.170;8.596;2023-06-01T09:05:47;29.70;95.60
21662;DHT22;10992;48.170;8.596;2023-06-01T09:08:14;29.30;95.40
21662;DHT22;10992;48.170;8.596;2023-06-01T09:10:41;29.30;95.30
21662;DHT22;10992;48.170;8.596;2023-06-01T09:13:08;28.60;95.60
21662;DHT22;10992;48.170;8.596;2023-06-01T09:15:50;28.50;95.60
21662;DHT22;10992;48.170;8.596;2023-06-01T09:18:18;27.70;95.90
21662;DHT22;10992;48.170;8.596;2023-06-01T09:20:45;27.40;95.30
21662;DHT22;10992;48.170;8.596;2023-06-01T09:23:28;27.30;96.00
21662;DHT22;10992;48.170;8.596;2023-06-01T09:26:25;27.70;95.90
21662;DHT22;10992;48.170;8.596;2023-06-01T09:31:37;27.80;95.50
21662;DHT22;10992;48.170;8.596;2023-06-01T09:34:14;27.50;94.70
21662;DHT22;10992;48.170;8.596;2023-06-01T09:36:55;28.00;94.90
21662;DHT22;10992;48.170;8.596;2023-06-01T09:39:23;28.20;95.20
21662;DHT22;10992;48.170;8.596;2023-06-01T09:44:27;28.90;94.40
21662;DHT22;10992;48.170;8.596;2023-06-01T09:46:59;29.20;94.30
21662;DHT22;10992;48.170;8.596;2023-06-01T09:49:29;29.00;93.70
21662;DHT22;10992;48.170;8.596;2023-06-01T09:54:47;27.90;94.60
21662;DHT22;10992;48.170;8.596;2023-06-01T09:57:23;28.30;94.30
21662;DHT22;10992;48.170;8.596;2023-06-01T09:59:50;28.90;93.80
21662;DHT22;10992;48.170;8.596;2023-06-01T10:02:19;28.00;93.90
21662;DHT22;10992;48.170;8.596;2023-06-01T10:04:51;28.00;94.10
21662;DHT22;10992;48.170;8.596;2023-06-01T10:07:23;28.10;94.50
21662;DHT22;10992;48.170;8.596;2023-06-01T10:09:57;28.60;94.50
21662;DHT22;10992;48.170;8.596;2023-06-01T10:12:26;28.60;93.20
21662;DHT22;10992;48.170;8.596;2023-06-01T10:14:56;28.30;93.80
21662;DHT22;10992;48.170;8.596;2023-06-01T10:17:24;28.00;95.50
21662;DHT22;10992;48.170;8.596;2023-06-01T10:19:51;28.80;94.60
21662;DHT22;10992;48.170;8.596;2023-06-01T10:22:18;29.00;94.40
21662;DHT22;10992;48.170;8.596;2023-06-01T10:24:45;29.50;93.80
21662;DHT22;10992;48.170;8.596;2023-06-01T10:29:43;29.80;92.80
21662;DHT22;10992;48.170;8.596;2023-06-01T10:32:40;29.10;93.90
21662;DHT22;10992;48.170;8.596;2023-06-01T10:35:07;29.30;93.40
21662;DHT22;10992;48.170;8.596;2023-06-01T10:37:37;29.10;93.10
21662;DHT22;10992;48.170;8.596;2023-06-01T10:42:44;28.30;94.10
21662;DHT22;10992;48.170;8.596;2023-06-01T10:48:02;29.30;93.40
21662;DHT22;10992;48.170;8.596;2023-06-01T10:50:30;29.00;94.60
21662;DHT22;10992;48.170;8.596;2023-06-01T10:53:24;29.50;93.90
21662;DHT22;10992;48.170;8.596;2023-06-01T10:56:17;29.20;95.00
21662;DHT22;10992;48.170;8.596;2023-06-01T10:58:44;29.70;94.00
21662;DHT22;10992;48.170;8.596;2023-06-01T11:01:18;29.50;94.70
21662;DHT22;10992;48.170;8.596;2023-06-01T11:03:47;29.50;93.80
21662;DHT22;10992;48.170;8.596;2023-06-01T11:06:30;29.50;94.00
21662;DHT22;10992;48.170;8.596;2023-06-01T11:09:00;29.00;93.50
21662;DHT22;10992;48.170;8.596;2023-06-01T11:14:26;28.90;94.40
21662;DHT22;10992;48.170;8.596;2023-06-01T11:16:54;28.90;94.90
21662;DHT22;10992;48.170;8.596;2023-06-01T11:19:25;29.30;95.30
21662;DHT22;10992;48.170;8.596;2023-06-01T11:21:57;29.40;94.40
21662;DHT22;10992;48.170;8.596;2023-06-01T11:24:38;28.50;93.90
21662;DHT22;10992;48.170;8.596;2023-06-01T11:27:09;28.90;94.30
21662;DHT22;10992;48.170;8.596;2023-06-01T11:29:37;29.00;94.90
21662;DHT22;10992;48.170;8.596;2023-06-01T11:32:05;29.00;94.40
21662;DHT22;10992;48.170;8.596;2023-06-01T11:34:37;28.10;94.50
21662;DHT22;10992;48.170;8.596;2023-06-01T11:37:06;28.40;95.30
21662;DHT22;10992;48.170;8.596;2023-06-01T11:39:39;28.40;96.50
21662;DHT22;10992;48.170;8.596;2023-06-01T11:42:11;29.20;94.70
21662;DHT22;10992;48.170;8.596;2023-06-01T11:44:40;28.90;94.50
21662;DHT22;10992;48.170;8.596;2023-06-01T11:47:08;29.10;95.30
21662;DHT22;10992;48.170;8.596;2023-06-01T11:49:43;29.30;94.00
21662;DHT22;10992;48.170;8.596;2023-06-01T11:52:17;28.80;94.00
21662;DHT22;10992;48.170;8.596;2023-06-01T11:54:45;28.80;94.40
21662;DHT22;10992;48.170;8.596;2023-06-01T11:57:12;28.70;95.70
21662;DHT22;10992;48.170;8.596;2023-06-01T11:59:49;29.10;94.20
21662;DHT22;10992;48.170;8.596;2023-06-01T12:04:58;28.50;95.60
21662;DHT22;10992;48.170;8.596;2023-06-01T12:07:26;28.40;96.20
21662;DHT22;10992;48.170;8.596;2023-06-01T12:09:54;29.00;95.00
21662;DHT22;10992;48.170;8.596;2023-06-01T12:12:23;29.50;94.90
21662;DHT22;10992;48.170;8.596;2023-06-01T12:14:52;29.70;93.90
21662;DHT22;10992;48.170;8.596;2023-06-01T12:17:20;29.70;93.50
21662;DHT22;10992;48.170;8.596;2023-06-01T12:19:48;29.00;92.90
21662;DHT22;10992;48.170;8.596;2023-06-01T12:22:16;29.30;94.50
21662;DHT22;10992;48.170;8.596;2023-06-01T12:24:44;29.50;94.70
21662;DHT22;10992;48.170;8.596;2023-06-01T12:27:16;29.80;93.20
21662;DHT22;10992;48.170;8.596;2023-06-01T12:29:47;28.60;93.70
21662;DHT22;10992;48.170;8.596;2023-06-01T12:32:17;27.10;94.50
21662;DHT22;10992;48.170;8.596;2023-06-01T12:35:02;27.10;96.50
21662;DHT22;10992;48.170;8.596;2023-06-01T12:37:29;27.20;95.50
21662;DHT22;10992;48.170;8.596;2023-06-01T12:39:56;27.50;95.20
21662;DHT22;10992;48.170;8.596;2023-06-01T12:42:39;28.40;94.90
21662;DHT22;10992;48.170;8.596;2023-06-01T12:45:07;27.60;94.10
21662;DHT22;10992;48.170;8.596;2023-06-01T12:47:36;26.90;93.70
21662;DHT22;10992;48.170;8.596;2023-06-01T12:50:08;27.00;94.60
21662;DHT22;10992;48.170;8.596;2023-06-01T12:52:36;27.70;94.00
21662;DHT22;10992;48.170;8.596;2023-06-01T12:55:04;28.60;94.00
21662;DHT22;10992;48.170;8.596;2023-06-01T12:57:31;28.10;93.60
21662;DHT22;10992;48.170;8.596;2023-06-01T12:59:58;28.30;93.90
21662;DHT22;10992;48.170;8.596;2023-06-01T13:02:26;28.50;94.40
21662;DHT22;10992;48.170;8.596;2023-06-01T13:04:54;28.80;92.70
21662;DHT22;10992;48.170;8.596;2023-06-01T13:07:21;28.50;93.20
21662;DHT22;10992;48.170;8.596;2023-06-01T13:09:50;28.50;93.40
21662;DHT22;10992;48.170;8.596;2023-06-01T13:12:18;28.70;93.70
21662;DHT22;10992;48.170;8.596;2023-06-01T13:14:44;29.10;94.20
21662;DHT22;10992;48.170;8.596;2023-06-01T13:17:12;29.50;92.50
21662;DHT22;10992;48.170;8.596;2023-06-01T13:19:39;29.00;92.60
21662;DHT22;10992;48.170;8.596;2023-06-01T13:22:09;28.20;92.20
21662;DHT22;10992;48.170;8.596;2023-06-01T13:24:36;27.80;93.70
21662;DHT22;10992;48.170;8.596;2023-06-01T13:27:06;26.60;93.70
21662;DHT22;10992;48.170;8.596;2023-06-01T13:29:34;26.40;93.80
21662;DHT22;10992;48.170;8.596;2023-06-01T13:32:00;26.30;94.50
21662;DHT22;10992;48.170;8.596;2023-06-01T13:34:28;26.80;94.00
21662;DHT22;10992;48.170;8.596;2023-06-01T13:36:55;26.90;95.50
21662;DHT22;10992;48.170;8.596;2023-06-01T13:39:23;27.30;95.20
21662;DHT22;10992;48.170;8.596;2023-06-01T13:41:51;26.70;94.90
21662;DHT22;10992;48.170;8.596;2023-06-01T13:44:18;26.40;94.80
21662;DHT22;10992;48.170;8.596;2023-06-01T13:46:46;26.40;95.60
21662;DHT22;10992;48.170;8.596;2023-06-01T13:49:12;26.50;95.20
21662;DHT22;10992;48.170;8.596;2023-06-01T13:51:39;27.20;95.10
21662;DHT22;10992;48.170;8.596;2023-06-01T13:54:06;27.20;94.70
21662;DHT22;10992;48.170;8.596;2023-06-01T13:56:34;27.00;94.70
21662;DHT22;10992;48.170;8.596;2023-06-01T13:59:01;27.30;94.70
21662;DHT22;10992;48.170;8.596;2023-06-01T14:01:28;27.20;94.80
21662;DHT22;10992;48.170;8.596;2023-06-01T14:03:55;27.50;94.70
21662;DHT22;10992;48.170;8.596;2023-06-01T14:06:22;27.70;93.30
21662;DHT22;10992;48.170;8.596;2023-06-01T14:08:49;27.50;94.00
21662;DHT22;10992;48.170;8.596;2023-06-01T14:11:16;26.90;94.30
21662;DHT22;10992;48.170;8.596;2023-06-01T14:13:43;26.30;95.80
21662;DHT22;10992;48.170;8.596;2023-06-01T14:16:10;27.00;94.00
21662;DHT22;10992;48.170;8.596;2023-06-01T14:18:37;27.00;94.20
21662;DHT22;10992;48.170;8.596;2023-06-01T14:21:04;27.30;95.40
21662;DHT22;10992;48.170;8.596;2023-06-01T14:23:31;27.10;95.50
21662;DHT22;10992;48.170;8.596;2023-06-01T14:25:59;27.30;94.90
21662;DHT22;10992;48.170;8.596;2023-06-01T14:28:26;27.50;93.80
21662;DHT22;10992;48.170;8.596;2023-06-01T14:30:53;27.70;93.60
21662;DHT22;10992;48.170;8.596;2023-06-01T14:33:20;27.80;94.00
21662;DHT22;10992;48.170;8.596;2023-06-01T14:35:47;27.80;92.60
21662;DHT22;10992;48.170;8.596;2023-06-01T14:38:14;27.80;93.50
21662;DHT22;10992;48.170;8.596;2023-06-01T14:40:41;27.40;93.00
21662;DHT22;10992;48.170;8.596;2023-06-01T14:43:08;27.00;93.40
21662;DHT22;10992;48.170;8.596;2023-06-01T14:45:35;26.80;94.20
21662;DHT22;10992;48.170;8.596;2023-06-01T14:48:01;26.70;94.50
21662;DHT22;10992;48.170;8.596;2023-06-01T14:50:28;26.70;94.60
21662;DHT22;10992;48.170;8.596;2023-06-01T14:52:55;26.80;93.60
21662;DHT22;10992;48.170;8.596;2023-06-01T14:55:26;26.70;94.60
21662;DHT22;10992;48.170;8.596;2023-06-01T14:57:54;26.70;95.30
21662;DHT22;10992;48.170;8.596;2023-06-01T15:00:21;26.60;94.60
21662;DHT22;10992;48.170;8.596;2023-06-01T15:02:48;26.40;94.80
21662;DHT22;10992;48.170;8.596;2023-06-01T15:05:16;26.50;94.60
21662;DHT22;10992;48.170;8.596;2023-06-01T15:07:43;26.80;93.80
21662;DHT22;10992;48.170;8.596;2023-06-01T15:10:10;26.40;93.80
21662;DHT22;10992;48.170;8.596;2023-06-01T15:12:37;26.20;93.80
21662;DHT22;10992;48.170;8.596;2023-06-01T15:15:04;26.10;93.70
21662;DHT22;10992;48.170;8.596;2023-06-01T15:17:32;26.20;95.90
21662;DHT22;10992;48.170;8.596;2023-06-01T15:19:59;26.20;95.20
21662;DHT22;10992;48.170;8.596;2023-06-01T15:22:26;26.80;94.30
21662;DHT22;10992;48.170;8.596;2023-06-01T15:24:52;26.70;93.20
21662;DHT22;10992;48.170;8.596;2023-06-01T15:27:19;26.40;93.40
21662;DHT22;10992;48.170;8.596;2023-06-01T15:29:47;26.20;93.80
21662;DHT22;10992;48.170;8.596;2023-06-01T15:32:14;26.20;94.40
21662;DHT22;10992;48.170;8.596;2023-06-01T15:34:40;26.10;93.50
21662;DHT22;10992;48.170;8.596;2023-06-01T15:37:10;25.90;93.40
21662;DHT22;10992;48.170;8.596;2023-06-01T15:39:38;25.60;94.10
21662;DHT22;10992;48.170;8.596;2023-06-01T15:42:06;25.40;93.60
21662;DHT22;10992;48.170;8.596;2023-06-01T15:44:34;25.30;94.30
21662;DHT22;10992;48.170;8.596;2023-06-01T15:47:05;25.30;94.10
21662;DHT22;10992;48.170;8.596;2023-06-01T15:49:32;25.20;94.00
21662;DHT22;10992;48.170;8.596;2023-06-01T15:51:59;25.10;93.90
21662;DHT22;10992;48.170;8.596;2023-06-01T15:54:26;24.90;94.20
21662;DHT22;10992;48.170;8.596;2023-06-01T15:56:53;24.90;94.20
21662;DHT22;10992;48.170;8.596;2023-06-01T15:59:20;24.80;94.40
21662;DHT22;10992;48.170;8.596;2023-06-01T16:01:47;24.80;94.30
21662;DHT22;10992;48.170;8.596;2023-06-01T16:04:14;24.70;94.10
21662;DHT22;10992;48.170;8.596;2023-06-01T16:06:42;24.70;94.20
21662;DHT22;10992;48.170;8.596;2023-06-01T16:09:09;24.50;93.90